Time;durP1;ratioP1;P1;durP2;ratioP2;P2;SDS_P1;SDS_P2;PMS_P1;PMS_P2;Temp;Humidity;BMP_temperature;BMP_pressure;BME280_temperature;BME280_humidity;BME280_pressure;Samples;Min_cycle;Max_cycle;Signal;HPM_P1;HPM_P2
2023/08/26 00:00:47;;;;;;;14.65;9.68;;;;;;;;;;6231532;28;20508;-68
2023/08/26 00:03:49;;;;;;;15.95;11.13;;;;;;;;;;6262239;28;20124;-68
2023/08/26 00:06:51;;;;;;;13.88;10.25;;;;;;;;;;6291471;28;20053;-69
2023/08/26 00:09:53;;;;;;;16.88;10.73;;;;;;;;;;6260694;28;20047;-69
2023/08/26 00:12:55;;;;;;;19.15;11.55;;;;;;;;;;6256551;27;20052;-70
2023/08/26 00:15:57;;;;;;;15.45;11.60;;;;;;;;;;6270496;28;20064;-69
2023/08/26 00:18:59;;;;;;;20.42;12.50;;;;;;;;;;6244683;28;20042;-69
2023/08/26 00:22:02;;;;;;;16.20;12.23;;;;;;;;;;6276496;27;20115;-69
2023/08/26 00:25:04;;;;;;;16.77;11.93;;;;;;;;;;6264701;27;20046;-70
2023/08/26 00:28:06;;;;;;;16.73;10.95;;;;;;;;;;6277111;27;20049;-70
2023/08/26 00:31:08;;;;;;;16.70;10.50;;;;;;;;;;6254202;27;20047;-68
2023/08/26 00:34:11;;;;;;;16.60;11.05;;;;;;;;;;6278150;27;20039;-67
2023/08/26 00:37:13;;;;;;;23.63;11.63;;;;;;;;;;6252985;27;20045;-69
2023/08/26 00:40:16;;;;;;;15.38;10.52;;;;;;;;;;6250595;27;20042;-69
2023/08/26 00:43:18;;;;;;;13.95;11.13;;;;;;;;;;6235036;28;20535;-68
2023/08/26 00:46:23;;;;;;;15.98;9.32;;;;;;;;;;6234756;27;20516;-67
2023/08/26 00:49:25;;;;;;;;;;;;;;;;;;6251357;27;20178;-68
2023/08/26 00:52:27;;;;;;;15.85;9.75;;;;;;;;;;6285390;27;19925;-67
2023/08/26 00:55:30;;;;;;;17.58;10.98;;;;;;;;;;6267271;27;20051;-68
2023/08/26 00:58:32;;;;;;;15.13;11.13;;;;;;;;;;6250543;27;20607;-68
2023/08/26 01:01:35;;;;;;;15.10;10.77;;;;;;;;;;6228489;27;20046;-68
2023/08/26 01:04:40;;;;;;;17.70;11.00;;;;;;;;;;6225039;28;20048;-68
2023/08/26 01:07:44;;;;;;;19.30;11.57;;;;;;;;;;6291148;27;20513;-68
2023/08/26 01:10:49;;;;;;;17.77;11.27;;;;;;;;;;6230074;27;20041;-68
2023/08/26 01:14:09;;;;;;;16.58;12.20;;;;;;;;;;6248275;27;20041;-68
2023/08/26 01:17:12;;;;;;;16.48;11.75;;;;;;;;;;6231956;28;20053;-68
2023/08/26 01:20:16;;;;;;;20.05;11.77;;;;;;;;;;6216902;28;20081;-67
2023/08/26 01:23:39;;;;;;;16.40;11.32;;;;;;;;;;6273523;27;20057;-68
2023/08/26 01:26:42;;;;;;;;;;;;;;;;;;6254789;27;20082;-67
2023/08/26 01:29:45;;;;;;;18.52;11.93;;;;;;;;;;6233649;28;19921;-67
2023/08/26 01:32:47;;;;;;;14.70;10.75;;;;;;;;;;6293057;27;20121;-67
2023/08/26 01:35:53;;;;;;;16.20;10.45;;;;;;;;;;6248408;27;20116;-67
2023/08/26 01:38:56;;;;;;;19.42;11.82;;;;;;;;;;6228816;28;20121;-67
2023/08/26 01:41:59;;;;;;;17.02;12.27;;;;;;;;;;6247140;27;20053;-68
2023/08/26 01:45:01;;;;;;;16.00;12.00;;;;;;;;;;6234568;28;20084;-68
2023/08/26 01:48:03;;;;;;;15.18;10.40;;;;;;;;;;6258968;27;20049;-68
2023/08/26 01:51:05;;;;;;;15.02;11.10;;;;;;;;;;6253951;27;20061;-67
2023/08/26 01:54:07;;;;;;;14.52;9.85;;;;;;;;;;6276996;27;20088;-68
2023/08/26 01:57:09;;;;;;;17.88;9.88;;;;;;;;;;6262476;27;20076;-68
2023/08/26 02:00:12;;;;;;;13.90;10.13;;;;;;;;;;6245842;27;20053;-69
2023/08/26 02:03:17;;;;;;;15.48;10.18;;;;;;;;;;6253417;27;20070;-68
2023/08/26 02:06:19;;;;;;;18.10;12.40;;;;;;;;;;6253197;27;20522;-69
2023/08/26 02:09:21;;;;;;;13.20;10.40;;;;;;;;;;6226056;27;20058;-67
2023/08/26 02:12:23;;;;;;;15.23;12.05;;;;;;;;;;6234575;27;20107;-67
2023/08/26 02:15:25;;;;;;;14.90;11.70;;;;;;;;;;6223771;28;20045;-67
2023/08/26 02:18:28;;;;;;;14.55;10.82;;;;;;;;;;6235187;27;20045;-68
2023/08/26 02:21:30;;;;;;;16.67;11.02;;;;;;;;;;6246947;27;20050;-69
2023/08/26 02:24:32;;;;;;;16.45;10.50;;;;;;;;;;6233198;27;20042;-67
2023/08/26 02:27:34;;;;;;;14.07;10.73;;;;;;;;;;6257349;27;20053;-68
2023/08/26 02:30:37;;;;;;;15.27;11.00;;;;;;;;;;6244504;27;20054;-67
2023/08/26 02:33:40;;;;;;;14.75;10.82;;;;;;;;;;6243503;27;20129;-67
2023/08/26 02:36:42;;;;;;;17.95;14.38;;;;;;;;;;6238990;27;20186;-68
2023/08/26 02:39:45;;;;;;;14.45;11.00;;;;;;;;;;6234239;28;20081;-67
2023/08/26 02:42:47;;;;;;;13.30;11.18;;;;;;;;;;6243199;27;20058;-68
2023/08/26 02:45:53;;;;;;;14.55;9.70;;;;;;;;;;6232129;28;20190;-67
2023/08/26 02:48:56;;;;;;;13.30;10.20;;;;;;;;;;6246302;27;20049;-67
2023/08/26 02:51:58;;;;;;;13.48;10.85;;;;;;;;;;6240422;27;20049;-68
2023/08/26 02:55:00;;;;;;;14.43;10.30;;;;;;;;;;6258703;27;20037;-68
2023/08/26 02:58:02;;;;;;;14.38;10.13;;;;;;;;;;6237970;27;20037;-67
2023/08/26 03:01:06;;;;;;;16.98;10.13;;;;;;;;;;6235492;28;20046;-69
2023/08/26 03:04:08;;;;;;;13.38;9.55;;;;;;;;;;6234552;27;20077;-69
2023/08/26 03:07:13;;;;;;;12.93;10.85;;;;;;;;;;6241831;27;20786;-68
2023/08/26 03:10:15;;;;;;;13.25;9.13;;;;;;;;;;6272459;27;20050;-67
2023/08/26 03:13:17;;;;;;;14.60;10.23;;;;;;;;;;6252192;27;20164;-67
2023/08/26 03:16:19;;;;;;;13.18;10.10;;;;;;;;;;6221950;28;20049;-67
2023/08/26 03:19:21;;;;;;;14.35;11.55;;;;;;;;;;6263384;27;20050;-67
2023/08/26 03:22:23;;;;;;;14.68;9.82;;;;;;;;;;6282625;27;20122;-67
2023/08/26 03:25:26;;;;;;;14.90;10.30;;;;;;;;;;6268020;27;20440;-67
2023/08/26 03:28:28;;;;;;;14.63;9.35;;;;;;;;;;6252684;28;20052;-67
2023/08/26 03:31:31;;;;;;;13.25;9.80;;;;;;;;;;6217218;28;20519;-68
2023/08/26 03:34:33;;;;;;;15.30;9.52;;;;;;;;;;6230796;27;20062;-69
2023/08/26 03:37:36;;;;;;;15.13;10.43;;;;;;;;;;6224539;28;20054;-68
2023/08/26 03:40:40;;;;;;;15.75;11.32;;;;;;;;;;6274784;27;20531;-66
2023/08/26 03:43:42;;;;;;;12.85;9.93;;;;;;;;;;6246055;28;20049;-68
2023/08/26 03:46:44;;;;;;;17.08;10.13;;;;;;;;;;6235835;28;20502;-66
2023/08/26 03:49:46;;;;;;;17.35;11.02;;;;;;;;;;6233758;28;20046;-68
2023/08/26 03:52:48;;;;;;;13.90;11.07;;;;;;;;;;6242278;27;20049;-67
2023/08/26 03:55:50;;;;;;;17.80;11.50;;;;;;;;;;6256332;28;20619;-67
2023/08/26 03:58:56;;;;;;;15.82;11.75;;;;;;;;;;6239265;28;20050;-66
2023/08/26 04:01:58;;;;;;;16.90;12.40;;;;;;;;;;6241842;28;20058;-67
2023/08/26 04:05:00;;;;;;;15.52;11.73;;;;;;;;;;6226423;28;20226;-67
2023/08/26 04:08:03;;;;;;;19.52;12.82;;;;;;;;;;6255784;28;20136;-66
2023/08/26 04:11:06;;;;;;;18.55;13.32;;;;;;;;;;6231057;28;20049;-67
2023/08/26 04:14:08;;;;;;;18.40;13.18;;;;;;;;;;6233563;28;20534;-65
2023/08/26 04:17:12;;;;;;;20.15;15.85;;;;;;;;;;6229689;28;20079;-67
2023/08/26 04:20:15;;;;;;;23.33;14.55;;;;;;;;;;6230855;28;20128;-67
2023/08/26 04:23:17;;;;;;;18.75;14.38;;;;;;;;;;6255645;28;20054;-67
2023/08/26 04:26:19;;;;;;;22.08;15.27;;;;;;;;;;6217258;28;20045;-67
2023/08/26 04:29:21;;;;;;;20.50;16.38;;;;;;;;;;6235369;28;20042;-68
2023/08/26 04:32:23;;;;;;;19.17;14.77;;;;;;;;;;6233333;28;20053;-67
2023/08/26 04:35:25;;;;;;;20.88;14.68;;;;;;;;;;6227857;28;20555;-68
2023/08/26 04:38:28;;;;;;;21.17;14.57;;;;;;;;;;6256447;28;20056;-68
2023/08/26 04:41:30;;;;;;;19.35;14.93;;;;;;;;;;6252954;28;20057;-67
2023/08/26 04:44:32;;;;;;;19.33;13.95;;;;;;;;;;6256131;28;20739;-68
2023/08/26 04:47:35;;;;;;;19.48;14.82;;;;;;;;;;6259347;28;20087;-68
2023/08/26 04:50:40;;;;;;;23.33;16.35;;;;;;;;;;6241414;28;20061;-68
2023/08/26 04:53:42;;;;;;;18.05;14.10;;;;;;;;;;6253627;28;20041;-67
2023/08/26 04:56:44;;;;;;;19.15;14.13;;;;;;;;;;6230517;28;20036;-67
2023/08/26 04:59:46;;;;;;;18.20;13.02;;;;;;;;;;6253928;27;20049;-67
2023/08/26 05:02:48;;;;;;;21.00;14.20;;;;;;;;;;6240320;28;20050;-67
2023/08/26 05:05:52;;;;;;;18.48;13.57;;;;;;;;;;6243842;27;20050;-67
2023/08/26 05:08:54;;;;;;;18.17;13.77;;;;;;;;;;6249519;27;20053;-67
2023/08/26 05:11:57;;;;;;;17.85;12.75;;;;;;;;;;6246864;27;20064;-68
2023/08/26 05:15:00;;;;;;;19.13;14.20;;;;;;;;;;6258427;27;20800;-67
2023/08/26 05:18:03;;;;;;;18.98;12.52;;;;;;;;;;6280452;27;20562;-68
2023/08/26 05:21:05;;;;;;;17.95;12.52;;;;;;;;;;6248297;27;20303;-67
2023/08/26 05:24:07;;;;;;;18.40;12.43;;;;;;;;;;6301942;27;20053;-68
2023/08/26 05:27:09;;;;;;;19.17;13.35;;;;;;;;;;6254672;27;20194;-68
2023/08/26 05:30:12;;;;;;;18.75;12.35;;;;;;;;;;6268551;27;20431;-68
2023/08/26 05:33:23;;;;;;;18.08;12.95;;;;;;;;;;6237233;28;20455;-67
2023/08/26 05:36:26;;;;;;;27.23;12.52;;;;;;;;;;6236884;27;20056;-68
2023/08/26 05:39:28;;;;;;;15.48;12.35;;;;;;;;;;6238954;27;20049;-68
2023/08/26 05:42:30;;;;;;;14.98;11.40;;;;;;;;;;6259933;27;20047;-68
2023/08/26 05:45:32;;;;;;;18.10;11.32;;;;;;;;;;6271067;27;20120;-67
2023/08/26 05:48:34;;;;;;;12.95;10.23;;;;;;;;;;6254567;27;20061;-67
2023/08/26 05:51:39;;;;;;;19.23;10.80;;;;;;;;;;6260574;27;20122;-67
2023/08/26 05:54:43;;;;;;;12.73;9.55;;;;;;;;;;6265145;27;20037;-67
2023/08/26 05:57:45;;;;;;;14.05;9.10;;;;;;;;;;6252631;27;20039;-69
2023/08/26 06:00:47;;;;;;;11.05;8.57;;;;;;;;;;6247782;27;20055;-68
2023/08/26 06:03:50;;;;;;;13.48;8.13;;;;;;;;;;6232905;27;20064;-68
2023/08/26 06:06:52;;;;;;;12.48;7.80;;;;;;;;;;6238390;27;20056;-69
2023/08/26 06:09:54;;;;;;;12.27;7.53;;;;;;;;;;6246984;27;20541;-68
2023/08/26 06:12:56;;;;;;;9.95;7.95;;;;;;;;;;6226769;28;20054;-67
2023/08/26 06:16:02;;;;;;;8.63;5.55;;;;;;;;;;6239959;27;20041;-67
2023/08/26 06:19:05;;;;;;;9.85;6.22;;;;;;;;;;6235414;28;20061;-68
2023/08/26 06:22:07;;;;;;;9.02;6.25;;;;;;;;;;6266149;27;20131;-68
2023/08/26 06:25:14;;;;;;;9.57;5.53;;;;;;;;;;6252135;27;20175;-70
2023/08/26 06:28:16;;;;;;;9.43;5.05;;;;;;;;;;6244852;27;20050;-69
2023/08/26 06:31:19;;;;;;;7.93;5.40;;;;;;;;;;6251991;27;20098;-68
2023/08/26 06:34:22;;;;;;;7.45;5.40;;;;;;;;;;6244730;27;20042;-69
2023/08/26 06:37:24;;;;;;;8.13;4.95;;;;;;;;;;6233762;27;20029;-69
2023/08/26 06:40:26;;;;;;;8.43;5.25;;;;;;;;;;6244388;27;20071;-69
2023/08/26 06:43:28;;;;;;;8.27;7.35;;;;;;;;;;6264591;27;20690;-68
2023/08/26 06:46:30;;;;;;;11.88;5.72;;;;;;;;;;6237980;27;20545;-69
2023/08/26 06:49:32;;;;;;;5.90;4.43;;;;;;;;;;6288816;27;20046;-69
2023/08/26 06:52:37;;;;;;;7.45;5.32;;;;;;;;;;6222227;28;20144;-69
2023/08/26 06:55:39;;;;;;;11.13;5.40;;;;;;;;;;6224826;27;20094;-68
2023/08/26 06:58:41;;;;;;;9.15;4.90;;;;;;;;;;6239216;27;20041;-69
2023/08/26 07:01:44;;;;;;;8.77;6.43;;;;;;;;;;6239596;27;20046;-69
2023/08/26 07:04:46;;;;;;;9.05;4.75;;;;;;;;;;6256080;27;20030;-69
2023/08/26 07:07:48;;;;;;;11.27;5.18;;;;;;;;;;6238023;27;20053;-68
2023/08/26 07:10:50;;;;;;;10.88;6.45;;;;;;;;;;6255947;27;20069;-70
2023/08/26 07:13:52;;;;;;;9.88;6.28;;;;;;;;;;6230468;28;20095;-71
2023/08/26 07:16:54;;;;;;;7.43;5.00;;;;;;;;;;6243364;27;20528;-69
2023/08/26 07:19:56;;;;;;;8.50;5.50;;;;;;;;;;6245611;27;20516;-70
2023/08/26 07:22:58;;;;;;;7.82;5.40;;;;;;;;;;6230697;28;20045;-70
2023/08/26 07:26:01;;;;;;;8.23;4.72;;;;;;;;;;6282803;27;20047;-70
2023/08/26 07:29:03;;;;;;;7.93;5.47;;;;;;;;;;6220914;27;20053;-70
2023/08/26 07:32:06;;;;;;;8.80;5.30;;;;;;;;;;6268304;27;20035;-70
2023/08/26 07:35:09;;;;;;;7.95;7.15;;;;;;;;;;6282887;27;20421;-70
2023/08/26 07:38:11;;;;;;;7.50;5.07;;;;;;;;;;6237242;28;20057;-67
2023/08/26 07:41:13;;;;;;;9.68;5.68;;;;;;;;;;6239826;27;20050;-69
2023/08/26 07:44:15;;;;;;;9.05;5.65;;;;;;;;;;6226576;28;20158;-69
2023/08/26 07:47:20;;;;;;;7.10;4.85;;;;;;;;;;6248014;27;20102;-70
2023/08/26 07:50:22;;;;;;;8.95;6.03;;;;;;;;;;6261054;27;20052;-69
2023/08/26 07:53:24;;;;;;;7.80;5.57;;;;;;;;;;6220736;28;20138;-69
2023/08/26 07:56:26;;;;;;;7.32;4.97;;;;;;;;;;6252608;27;20530;-69
2023/08/26 07:59:29;;;;;;;7.90;5.35;;;;;;;;;;6229517;28;20049;-69
2023/08/26 08:02:31;;;;;;;6.82;4.90;;;;;;;;;;6229980;28;20046;-69
2023/08/26 08:05:34;;;;;;;6.15;4.80;;;;;;;;;;6234263;28;20052;-69
2023/08/26 08:08:36;;;;;;;6.70;5.07;;;;;;;;;;6291014;27;20048;-69
2023/08/26 08:11:38;;;;;;;6.90;4.20;;;;;;;;;;6230046;28;20130;-70
2023/08/26 08:14:41;;;;;;;9.80;5.30;;;;;;;;;;6221700;28;20129;-69
2023/08/26 08:17:43;;;;;;;8.45;4.85;;;;;;;;;;6240875;28;20054;-69
2023/08/26 08:20:45;;;;;;;10.85;5.72;;;;;;;;;;6245385;28;20041;-69
2023/08/26 08:23:47;;;;;;;6.80;4.85;;;;;;;;;;6227557;28;20057;-69
2023/08/26 08:26:49;;;;;;;7.65;4.70;;;;;;;;;;6256683;28;20044;-69
2023/08/26 08:29:51;;;;;;;9.27;6.85;;;;;;;;;;6260710;28;20814;-69
2023/08/26 08:32:53;;;;;;;8.02;4.82;;;;;;;;;;6251538;28;20046;-69
2023/08/26 08:35:55;;;;;;;7.45;5.57;;;;;;;;;;6236925;28;20539;-69
2023/08/26 08:38:57;;;;;;;6.95;5.40;;;;;;;;;;6239637;27;20554;-69
2023/08/26 08:42:02;;;;;;;8.20;4.88;;;;;;;;;;6251688;27;20084;-69
2023/08/26 08:45:05;;;;;;;8.55;5.95;;;;;;;;;;6235479;28;20030;-69
2023/08/26 08:48:07;;;;;;;7.10;4.70;;;;;;;;;;6235649;27;20058;-69
2023/08/26 08:51:10;;;;;;;7.18;4.85;;;;;;;;;;6253544;27;20564;-70
2023/08/26 08:54:13;;;;;;;12.18;4.85;;;;;;;;;;6257309;27;20486;-68
2023/08/26 08:57:17;;;;;;;9.52;8.05;;;;;;;;;;6248553;27;20119;-70
2023/08/26 09:00:19;;;;;;;8.73;5.35;;;;;;;;;;6233289;27;20065;-69
2023/08/26 09:03:23;;;;;;;8.45;6.53;;;;;;;;;;6228198;28;20045;-69
2023/08/26 09:06:25;;;;;;;9.68;6.28;;;;;;;;;;6232127;28;20136;-69
2023/08/26 09:09:27;;;;;;;10.00;5.72;;;;;;;;;;6223970;28;20053;-70
2023/08/26 09:12:43;;;;;;;9.43;7.22;;;;;;;;;;6232589;28;20053;-70
2023/08/26 09:15:45;;;;;;;8.93;6.97;;;;;;;;;;6240532;27;20049;-68
2023/08/26 09:18:47;;;;;;;8.18;6.13;;;;;;;;;;6229083;28;20636;-69
2023/08/26 09:21:49;;;;;;;9.13;6.85;;;;;;;;;;6235250;28;20046;-69
2023/08/26 09:24:59;;;;;;;8.57;6.45;;;;;;;;;;6247335;27;20154;-69
2023/08/26 09:28:01;;;;;;;;;;;;;;;;;;6232478;28;20549;-69
2023/08/26 09:31:05;;;;;;;9.32;5.97;;;;;;;;;;6280340;27;19924;-70
2023/08/26 09:34:07;;;;;;;;;;;;;;;;;;6225122;27;20676;-69
2023/08/26 09:37:09;;;;;;;7.30;5.68;;;;;;;;;;6261998;27;19931;-69
2023/08/26 09:40:16;;;;;;;6.90;5.65;;;;;;;;;;6242986;27;20049;-69
2023/08/26 09:43:20;;;;;;;8.13;5.85;;;;;;;;;;6270298;27;20154;-70
2023/08/26 09:46:23;;;;;;;9.35;6.82;;;;;;;;;;6249371;27;20161;-69
2023/08/26 09:49:25;;;;;;;9.90;6.72;;;;;;;;;;6231314;28;20138;-69
2023/08/26 09:52:27;;;;;;;7.93;5.85;;;;;;;;;;6235289;28;20045;-70
2023/08/26 09:55:29;;;;;;;8.75;6.53;;;;;;;;;;6244978;27;20041;-70
2023/08/26 09:58:31;;;;;;;8.93;5.65;;;;;;;;;;6282991;27;20060;-69
2023/08/26 10:01:34;;;;;;;7.20;5.78;;;;;;;;;;6239842;27;20052;-69
2023/08/26 10:04:37;;;;;;;7.20;5.45;;;;;;;;;;6227528;28;20566;-70
2023/08/26 10:07:40;;;;;;;9.48;5.75;;;;;;;;;;6282629;27;20202;-69
2023/08/26 10:10:53;;;;;;;8.00;6.10;;;;;;;;;;6227793;27;20057;-70
2023/08/26 10:13:56;;;;;;;7.15;4.93;;;;;;;;;;6229539;28;20049;-70
2023/08/26 10:17:03;;;;;;;9.70;6.00;;;;;;;;;;6305390;27;20076;-70
2023/08/26 10:20:07;;;;;;;6.72;5.18;;;;;;;;;;6236574;27;20582;-70
2023/08/26 10:23:10;;;;;;;7.45;5.30;;;;;;;;;;6249039;27;20060;-69
2023/08/26 10:26:12;;;;;;;8.18;5.40;;;;;;;;;;6250384;27;20050;-69
2023/08/26 10:29:14;;;;;;;7.40;5.45;;;;;;;;;;6228531;28;20056;-69
2023/08/26 10:32:21;;;;;;;7.00;5.50;;;;;;;;;;6241511;27;20088;-70
2023/08/26 10:35:24;;;;;;;8.27;4.80;;;;;;;;;;6246160;27;20048;-70
2023/08/26 10:38:27;;;;;;;7.47;5.00;;;;;;;;;;6251042;27;20086;-70
2023/08/26 10:41:29;;;;;;;8.85;5.40;;;;;;;;;;6239365;27;20057;-70
2023/08/26 10:44:36;;;;;;;8.30;5.90;;;;;;;;;;6225545;28;20574;-70
2023/08/26 10:47:45;;;;;;;8.15;4.95;;;;;;;;;;6237471;27;20049;-68
2023/08/26 10:51:01;;;;;;;8.10;4.85;;;;;;;;;;6249535;27;20049;-69
2023/08/26 10:54:04;;;;;;;8.20;4.07;;;;;;;;;;6241024;27;20058;-69
2023/08/26 10:57:08;;;;;;;5.35;3.88;;;;;;;;;;6276703;27;20047;-69
2023/08/26 11:00:11;;;;;;;6.03;4.53;;;;;;;;;;6230748;28;20053;-69
2023/08/26 11:03:14;;;;;;;5.28;3.70;;;;;;;;;;6261023;27;20047;-69
2023/08/26 11:06:22;;;;;;;;;;;;;;;;;;6246233;27;20049;-69
2023/08/26 11:09:24;;;;;;;7.38;4.05;;;;;;;;;;6283809;27;19929;-67
2023/08/26 11:12:27;;;;;;;5.85;4.05;;;;;;;;;;6231993;28;20900;-66
2023/08/26 11:15:40;;;;;;;7.60;5.95;;;;;;;;;;6249271;27;20679;-67
2023/08/26 11:18:43;;;;;;;6.82;4.22;;;;;;;;;;6241344;28;20580;-68
2023/08/26 11:21:45;;;;;;;6.28;4.20;;;;;;;;;;6232897;28;20045;-68
2023/08/26 11:24:48;;;;;;;5.35;3.55;;;;;;;;;;6225051;28;20136;-67
2023/08/26 11:27:53;;;;;;;5.72;3.60;;;;;;;;;;6234200;28;20140;-68
2023/08/26 11:30:56;;;;;;;12.93;4.05;;;;;;;;;;6244101;27;20049;-67
2023/08/26 11:33:58;;;;;;;6.47;4.28;;;;;;;;;;6239431;27;20136;-67
2023/08/26 11:37:00;;;;;;;6.32;4.07;;;;;;;;;;6229665;28;20049;-68
2023/08/26 11:40:06;;;;;;;5.38;4.03;;;;;;;;;;6291657;27;20057;-68
2023/08/26 11:43:09;;;;;;;6.00;3.60;;;;;;;;;;6292135;27;20087;-68
2023/08/26 11:46:11;;;;;;;7.00;4.63;;;;;;;;;;6257941;27;20035;-68
2023/08/26 11:49:14;;;;;;;6.78;4.38;;;;;;;;;;6223707;28;20056;-68
2023/08/26 11:52:17;;;;;;;8.40;4.00;;;;;;;;;;6267500;27;20055;-68
2023/08/26 11:55:20;;;;;;;5.72;4.28;;;;;;;;;;6236840;28;20049;-68
2023/08/26 11:58:22;;;;;;;4.97;3.47;;;;;;;;;;6244888;28;20163;-68
2023/08/26 12:01:25;;;;;;;5.05;3.67;;;;;;;;;;6223495;28;20045;-69
2023/08/26 12:04:28;;;;;;;6.38;4.63;;;;;;;;;;6225096;28;20046;-67
2023/08/26 12:07:30;;;;;;;5.93;4.85;;;;;;;;;;6226803;28;20084;-67
2023/08/26 12:10:32;;;;;;;5.00;3.60;;;;;;;;;;6232139;27;21079;-69
2023/08/26 12:13:39;;;;;;;9.52;4.35;;;;;;;;;;6224109;28;20054;-69
2023/08/26 12:16:41;;;;;;;6.65;3.63;;;;;;;;;;6235229;27;20053;-69
2023/08/26 12:19:43;;;;;;;6.95;4.57;;;;;;;;;;6232716;28;20057;-69
2023/08/26 12:22:47;;;;;;;8.50;5.30;;;;;;;;;;6236460;27;20057;-71
2023/08/26 12:25:49;;;;;;;7.03;4.80;;;;;;;;;;6251769;27;20100;-70
2023/08/26 12:28:54;;;;;;;6.32;4.78;;;;;;;;;;6247362;27;20596;-70
2023/08/26 12:31:59;;;;;;;8.60;6.55;;;;;;;;;;6245556;27;20486;-70
2023/08/26 12:35:01;;;;;;;9.15;7.15;;;;;;;;;;6233530;27;20432;-70
2023/08/26 12:38:03;;;;;;;6.03;4.82;;;;;;;;;;6237677;27;20049;-70
2023/08/26 12:41:07;;;;;;;6.65;4.72;;;;;;;;;;6254952;27;20892;-70
2023/08/26 12:44:09;;;;;;;6.13;4.80;;;;;;;;;;6265995;27;20136;-70
2023/08/26 12:47:11;;;;;;;5.45;4.15;;;;;;;;;;6255024;27;20097;-70
2023/08/26 12:50:13;;;;;;;6.57;4.57;;;;;;;;;;6242358;27;20045;-70
2023/08/26 12:53:15;;;;;;;8.60;5.90;;;;;;;;;;6223292;28;20054;-70
2023/08/26 12:56:18;;;;;;;6.93;6.25;;;;;;;;;;6235535;27;20444;-70
2023/08/26 12:59:20;;;;;;;7.28;5.10;;;;;;;;;;6262360;28;20552;-69
2023/08/26 13:02:22;;;;;;;6.63;4.57;;;;;;;;;;6238317;28;20057;-70
2023/08/26 13:05:24;;;;;;;10.88;7.82;;;;;;;;;;6237832;27;20129;-70
2023/08/26 13:08:26;;;;;;;11.40;8.13;;;;;;;;;;6273063;27;20050;-70
2023/08/26 13:11:28;;;;;;;8.73;7.45;;;;;;;;;;6249007;27;20101;-70
2023/08/26 13:14:30;;;;;;;8.95;8.05;;;;;;;;;;6237696;27;20051;-69
2023/08/26 13:17:33;;;;;;;18.25;13.00;;;;;;;;;;6244680;27;20721;-70
2023/08/26 13:20:38;;;;;;;10.73;8.07;;;;;;;;;;6232562;28;20050;-69
2023/08/26 13:23:40;;;;;;;6.22;5.25;;;;;;;;;;6239385;27;20065;-70
2023/08/26 13:26:43;;;;;;;8.77;6.05;;;;;;;;;;6239455;27;20041;-70
2023/08/26 13:29:46;;;;;;;8.32;5.50;;;;;;;;;;6230002;28;20081;-70
2023/08/26 13:32:50;;;;;;;5.90;5.00;;;;;;;;;;6245679;27;20068;-70
2023/08/26 13:35:54;;;;;;;9.63;6.75;;;;;;;;;;6244147;27;20042;-69
2023/08/26 13:38:56;;;;;;;7.75;5.53;;;;;;;;;;6243448;27;20094;-70
2023/08/26 13:41:58;;;;;;;7.97;6.30;;;;;;;;;;6270732;27;20570;-69
2023/08/26 13:45:00;;;;;;;9.65;6.13;;;;;;;;;;6231291;27;20222;-70
2023/08/26 13:48:02;;;;;;;7.55;6.03;;;;;;;;;;6235094;28;20061;-70
2023/08/26 13:51:05;;;;;;;7.00;5.63;;;;;;;;;;6252312;27;20072;-68
2023/08/26 13:54:07;;;;;;;7.55;6.20;;;;;;;;;;6304597;27;20090;-69
2023/08/26 13:57:09;;;;;;;9.80;6.53;;;;;;;;;;6261486;27;20154;-69
2023/08/26 14:00:13;;;;;;;8.20;6.55;;;;;;;;;;6235800;27;20037;-70
2023/08/26 14:03:15;;;;;;;9.95;8.55;;;;;;;;;;6250525;27;20710;-69
2023/08/26 14:06:18;;;;;;;10.25;6.80;;;;;;;;;;6239355;27;20039;-68
2023/08/26 14:09:21;;;;;;;11.48;8.30;;;;;;;;;;6216087;28;20810;-70
2023/08/26 14:12:23;;;;;;;12.38;8.00;;;;;;;;;;6226209;28;20053;-70
2023/08/26 14:15:28;;;;;;;11.27;7.90;;;;;;;;;;6229753;27;20041;-69
2023/08/26 14:18:30;;;;;;;12.50;6.93;;;;;;;;;;6229561;27;20042;-69
2023/08/26 14:21:32;;;;;;;9.65;7.45;;;;;;;;;;6259864;27;20043;-69
2023/08/26 14:24:35;;;;;;;9.40;7.82;;;;;;;;;;6262058;27;20131;-69
2023/08/26 14:27:37;;;;;;;8.98;6.45;;;;;;;;;;6228977;28;20046;-69
2023/08/26 14:30:39;;;;;;;15.07;7.53;;;;;;;;;;6251190;27;20053;-69
2023/08/26 14:33:41;;;;;;;12.63;7.50;;;;;;;;;;6260896;27;20052;-69
2023/08/26 14:36:43;;;;;;;10.07;6.57;;;;;;;;;;6259526;27;20046;-70
2023/08/26 14:39:45;;;;;;;9.95;8.07;;;;;;;;;;6244116;27;20140;-71
2023/08/26 14:42:48;;;;;;;11.30;7.72;;;;;;;;;;6232158;28;20058;-71
2023/08/26 14:45:50;;;;;;;8.45;7.10;;;;;;;;;;6230867;27;20041;-70
2023/08/26 14:48:52;;;;;;;12.98;8.00;;;;;;;;;;6223197;28;20046;-69
2023/08/26 14:51:54;;;;;;;13.52;8.52;;;;;;;;;;6248680;27;20047;-69
2023/08/26 14:54:57;;;;;;;11.63;7.78;;;;;;;;;;6251782;27;20233;-71
2023/08/26 14:57:59;;;;;;;13.68;8.48;;;;;;;;;;6254674;27;20126;-70
2023/08/26 15:01:01;;;;;;;17.95;8.52;;;;;;;;;;6244854;27;20057;-70
2023/08/26 15:04:03;;;;;;;13.40;6.90;;;;;;;;;;6226371;28;20132;-70
2023/08/26 15:07:08;;;;;;;16.02;7.00;;;;;;;;;;6238980;27;20057;-70
2023/08/26 15:10:10;;;;;;;9.85;7.85;;;;;;;;;;6234024;28;20046;-70
2023/08/26 15:13:12;;;;;;;10.75;5.70;;;;;;;;;;6255896;27;20042;-70
2023/08/26 15:16:16;;;;;;;10.43;6.15;;;;;;;;;;6218268;28;20538;-70
2023/08/26 15:19:18;;;;;;;12.82;6.82;;;;;;;;;;6266781;27;20428;-70
2023/08/26 15:22:20;;;;;;;8.82;6.32;;;;;;;;;;6260254;27;20039;-70
2023/08/26 15:25:22;;;;;;;9.55;5.85;;;;;;;;;;6228498;27;20535;-68
2023/08/26 15:28:24;;;;;;;7.63;6.13;;;;;;;;;;6259323;27;20041;-70
2023/08/26 15:31:26;;;;;;;13.98;6.53;;;;;;;;;;6226089;28;20050;-71
2023/08/26 15:34:28;;;;;;;8.88;6.40;;;;;;;;;;6220906;28;20053;-71
2023/08/26 15:37:31;;;;;;;9.38;6.53;;;;;;;;;;6255290;27;20091;-70
2023/08/26 15:40:33;;;;;;;8.50;5.90;;;;;;;;;;6240656;27;20061;-71
2023/08/26 15:43:35;;;;;;;11.02;6.90;;;;;;;;;;6239445;27;20523;-71
2023/08/26 15:46:37;;;;;;;9.35;7.55;;;;;;;;;;6252563;27;20461;-71
2023/08/26 15:49:39;;;;;;;9.57;8.57;;;;;;;;;;6223151;28;20443;-71
2023/08/26 15:52:42;;;;;;;9.80;6.90;;;;;;;;;;6230007;27;20068;-71
2023/08/26 15:55:45;;;;;;;10.75;7.38;;;;;;;;;;6292777;27;20515;-71
2023/08/26 15:58:47;;;;;;;9.00;7.07;;;;;;;;;;6245439;27;20033;-71
2023/08/26 16:01:49;;;;;;;13.55;7.65;;;;;;;;;;6243101;28;20060;-70
2023/08/26 16:04:51;;;;;;;12.98;9.25;;;;;;;;;;6253858;28;20851;-70
2023/08/26 16:07:53;;;;;;;13.20;7.57;;;;;;;;;;6263722;27;20547;-69
2023/08/26 16:10:55;;;;;;;12.88;8.63;;;;;;;;;;6236762;27;20084;-71
2023/08/26 16:13:57;;;;;;;12.27;9.45;;;;;;;;;;6231684;28;20424;-71
2023/08/26 16:16:59;;;;;;;22.08;7.70;;;;;;;;;;6227197;28;20425;-71
2023/08/26 16:20:01;;;;;;;12.23;6.85;;;;;;;;;;6231169;28;20137;-70
2023/08/26 16:23:04;;;;;;;10.68;8.93;;;;;;;;;;6265833;28;20253;-70
2023/08/26 16:26:06;;;;;;;12.65;7.60;;;;;;;;;;6235379;28;20045;-70
2023/08/26 16:29:08;;;;;;;8.40;6.07;;;;;;;;;;6285537;28;20057;-69
2023/08/26 16:32:10;;;;;;;11.55;7.88;;;;;;;;;;6247733;27;20053;-70
2023/08/26 16:35:12;;;;;;;10.27;7.13;;;;;;;;;;6242224;28;20056;-70
2023/08/26 16:38:14;;;;;;;10.15;7.40;;;;;;;;;;6256067;28;20031;-70
2023/08/26 16:41:16;;;;;;;23.25;8.05;;;;;;;;;;6237219;28;20546;-71
2023/08/26 16:44:18;;;;;;;13.93;7.05;;;;;;;;;;6229705;28;20083;-70
2023/08/26 16:47:20;;;;;;;13.32;7.35;;;;;;;;;;6241426;28;20049;-67
2023/08/26 16:50:22;;;;;;;13.98;8.35;;;;;;;;;;6226394;28;20048;-67
2023/08/26 16:53:24;;;;;;;19.75;10.02;;;;;;;;;;6237365;27;20054;-67
2023/08/26 16:56:27;;;;;;;21.85;10.52;;;;;;;;;;6238331;28;20677;-69
2023/08/26 16:59:29;;;;;;;13.45;7.05;;;;;;;;;;6229862;28;20532;-70
2023/08/26 17:02:32;;;;;;;13.35;7.35;;;;;;;;;;6226292;28;20045;-70
2023/08/26 17:05:34;;;;;;;9.63;6.15;;;;;;;;;;6235994;27;20049;-71
2023/08/26 17:08:36;;;;;;;10.27;6.13;;;;;;;;;;6219420;28;20139;-70
2023/08/26 17:11:38;;;;;;;9.30;6.40;;;;;;;;;;6241123;27;20050;-70
2023/08/26 17:14:40;;;;;;;9.65;6.68;;;;;;;;;;6225014;28;20088;-70
2023/08/26 17:17:42;;;;;;;10.30;7.38;;;;;;;;;;6226262;27;20052;-69
2023/08/26 17:20:46;;;;;;;9.75;7.22;;;;;;;;;;6239932;27;20041;-70
2023/08/26 17:23:48;;;;;;;11.80;7.47;;;;;;;;;;6246890;27;20053;-70
2023/08/26 17:26:50;;;;;;;8.32;6.38;;;;;;;;;;6296876;27;20054;-70
2023/08/26 17:29:52;;;;;;;10.60;8.35;;;;;;;;;;6243864;27;20504;-70
2023/08/26 17:32:54;;;;;;;10.10;6.43;;;;;;;;;;6233207;27;20046;-69
2023/08/26 17:35:56;;;;;;;8.45;6.97;;;;;;;;;;6252370;27;20057;-70
2023/08/26 17:38:58;;;;;;;11.57;6.07;;;;;;;;;;6261514;27;20452;-69
2023/08/26 17:42:00;;;;;;;8.40;5.40;;;;;;;;;;6235168;27;20053;-70
2023/08/26 17:45:03;;;;;;;11.20;6.07;;;;;;;;;;6226114;28;20049;-70
2023/08/26 17:48:05;;;;;;;9.85;5.93;;;;;;;;;;6253683;27;20076;-68
2023/08/26 17:51:07;;;;;;;7.53;5.50;;;;;;;;;;6231448;27;20069;-67
2023/08/26 17:54:09;;;;;;;8.48;6.20;;;;;;;;;;6239600;28;20081;-67
2023/08/26 17:57:11;;;;;;;10.23;6.50;;;;;;;;;;6261179;27;20087;-67
2023/08/26 18:00:14;;;;;;;9.85;6.72;;;;;;;;;;6250016;27;20748;-68
2023/08/26 18:03:16;;;;;;;8.80;6.07;;;;;;;;;;6242739;27;20058;-68